createdAt,value
2018-05-18T00:00:31.737Z,6.60
2018-05-18T00:01:31.693Z,6.50
2018-05-18T00:02:31.649Z,6.40
2018-05-18T00:03:31.608Z,6.20
2018-05-18T00:04:31.569Z,6.30
2018-05-18T00:05:31.521Z,6.10
2018-05-18T00:06:31.486Z,6.50
2018-05-18T00:07:31.436Z,6.40
2018-05-18T00:08:31.395Z,6.40
2018-05-18T00:09:31.350Z,6.00
2018-05-18T00:10:31.317Z,6.50
2018-05-18T00:11:31.262Z,6.00
2018-05-18T00:12:31.219Z,6.90
2018-05-18T00:13:31.183Z,6.10
2018-05-18T00:14:31.131Z,5.80
2018-05-18T00:15:31.090Z,5.80
2018-05-18T00:16:31.046Z,6.80
2018-05-18T00:17:31.004Z,5.90
2018-05-18T00:18:30.961Z,6.40
2018-05-18T00:19:30.921Z,6.50
2018-05-18T00:20:30.872Z,6.10
2018-05-18T00:21:30.832Z,6.00
2018-05-18T00:22:30.788Z,6.10
2018-05-18T00:23:30.746Z,6.10
2018-05-18T00:24:30.700Z,6.00
2018-05-18T00:25:30.659Z,5.60
2018-05-18T00:26:30.615Z,6.50
2018-05-18T00:27:30.597Z,6.00
2018-05-18T00:28:30.538Z,6.30
2018-05-18T00:29:30.496Z,5.70
2018-05-18T00:30:30.446Z,6.20
2018-05-18T00:31:30.399Z,5.40
2018-05-18T00:32:30.355Z,6.10
2018-05-18T00:33:30.412Z,5.80
2018-05-18T00:34:30.277Z,5.50
2018-05-18T00:35:30.232Z,5.60
2018-05-18T00:36:30.187Z,5.70
2018-05-18T00:37:30.144Z,5.20
2018-05-18T00:38:30.098Z,6.00
2018-05-18T00:39:30.054Z,5.60
2018-05-18T00:40:30.013Z,6.30
2018-05-18T00:41:29.971Z,5.60
2018-05-18T00:42:29.927Z,5.60
2018-05-18T00:43:29.882Z,5.70
2018-05-18T00:44:29.843Z,5.40
2018-05-18T00:45:29.797Z,5.60
2018-05-18T00:46:29.753Z,5.60
2018-05-18T00:47:29.710Z,5.60
2018-05-18T00:48:29.743Z,5.40
2018-05-18T00:49:29.625Z,5.50
2018-05-18T00:50:29.580Z,5.10
2018-05-18T00:51:29.540Z,5.20
2018-05-18T00:52:29.499Z,6.10
2018-05-18T00:53:29.452Z,5.70
2018-05-18T00:54:29.413Z,5.10
2018-05-18T00:55:29.366Z,5.40
2018-05-18T00:56:29.326Z,5.00
2018-05-18T00:57:29.281Z,5.30
2018-05-18T00:58:29.241Z,5.50
2018-05-18T00:59:29.198Z,5.30
2018-05-18T01:00:29.153Z,5.70
2018-05-18T01:01:29.116Z,5.40
2018-05-18T01:02:29.065Z,5.10
2018-05-18T01:03:29.022Z,5.10
2018-05-18T01:04:28.980Z,5.60
2018-05-18T01:05:28.936Z,5.60
2018-05-18T01:06:28.894Z,5.30
2018-05-18T01:07:28.851Z,5.50
2018-05-18T01:08:28.817Z,5.60
2018-05-18T01:09:28.765Z,5.10
2018-05-18T01:10:28.719Z,5.90
2018-05-18T01:11:28.676Z,5.70
2018-05-18T01:12:28.635Z,5.60
2018-05-18T01:13:28.596Z,5.70
2018-05-18T01:14:28.548Z,5.50
2018-05-18T01:15:28.581Z,5.10
2018-05-18T01:16:28.540Z,5.40
2018-05-18T01:17:28.419Z,5.90
2018-05-18T01:18:28.375Z,5.60
2018-05-18T01:19:28.331Z,5.80
2018-05-18T01:20:28.289Z,5.40
2018-05-18T01:21:28.255Z,5.50
2018-05-18T01:22:28.204Z,4.90
2018-05-18T01:23:28.161Z,5.00
2018-05-18T01:24:28.116Z,5.60
2018-05-18T01:25:28.075Z,5.10
2018-05-18T01:26:28.034Z,5.30
2018-05-18T01:27:27.989Z,5.60
2018-05-18T01:28:27.943Z,4.60
2018-05-18T01:29:27.903Z,5.30
2018-05-18T01:30:27.869Z,5.40
2018-05-18T01:31:27.816Z,5.90
2018-05-18T01:32:27.770Z,5.30
2018-05-18T01:33:27.728Z,5.70
2018-05-18T01:34:27.685Z,5.90
2018-05-18T01:35:27.641Z,5.80
2018-05-18T01:36:27.600Z,5.40
2018-05-18T01:37:27.557Z,5.50
2018-05-18T01:38:27.574Z,5.20
2018-05-18T01:39:27.468Z,5.30
2018-05-18T01:40:27.425Z,5.40
2018-05-18T01:41:27.388Z,5.60
2018-05-18T01:42:27.347Z,5.70
2018-05-18T01:43:27.296Z,6.00
2018-05-18T01:44:27.254Z,5.40
2018-05-18T01:45:27.210Z,5.80
2018-05-18T01:46:27.167Z,5.80
2018-05-18T01:47:27.127Z,5.20
2018-05-18T01:48:27.081Z,5.90
2018-05-18T01:49:27.044Z,5.40
2018-05-18T01:50:26.995Z,5.50
2018-05-18T01:51:26.952Z,5.50
2018-05-18T01:52:26.909Z,5.40
2018-05-18T01:53:26.866Z,6.30
2018-05-18T01:54:26.825Z,5.30
2018-05-18T01:55:26.782Z,5.40
2018-05-18T01:56:26.735Z,5.70
2018-05-18T01:57:26.695Z,5.30
2018-05-18T01:58:26.651Z,5.90
2018-05-18T01:59:26.605Z,5.30
2018-05-18T02:00:26.562Z,6.30
2018-05-18T02:01:26.519Z,5.50
2018-05-18T02:02:26.477Z,5.60
2018-05-18T02:03:26.434Z,5.30
2018-05-18T02:04:26.392Z,5.50
2018-05-18T02:05:26.353Z,5.30
2018-05-18T02:06:26.301Z,5.30
2018-05-18T02:07:26.258Z,5.20
2018-05-18T02:08:26.215Z,5.90
2018-05-18T02:09:26.174Z,5.30
2018-05-18T02:10:26.127Z,4.40
2018-05-18T02:11:26.084Z,5.40
2018-05-18T02:12:26.042Z,5.00
2018-05-18T02:13:26.001Z,5.00
2018-05-18T02:14:25.956Z,5.30
2018-05-18T02:15:25.915Z,4.80
2018-05-18T02:16:25.869Z,4.90
2018-05-18T02:17:25.828Z,5.20
2018-05-18T02:18:25.787Z,4.80
2018-05-18T02:19:25.740Z,4.60
2018-05-18T02:20:25.696Z,4.80
2018-05-18T02:21:25.659Z,5.20
2018-05-18T02:22:25.612Z,4.90
2018-05-18T02:23:25.567Z,4.80
2018-05-18T02:24:25.529Z,4.70
2018-05-18T02:25:25.479Z,4.70
2018-05-18T02:26:25.440Z,4.70
2018-05-18T02:27:25.396Z,5.00
2018-05-18T02:28:25.357Z,4.70
2018-05-18T02:29:25.307Z,4.80
2018-05-18T02:30:25.264Z,5.00
2018-05-18T02:31:25.223Z,5.50
2018-05-18T02:32:25.183Z,4.40
2018-05-18T02:33:25.134Z,4.40
2018-05-18T02:34:25.089Z,4.80
2018-05-18T02:35:25.046Z,5.00
2018-05-18T02:36:25.002Z,4.80
2018-05-18T02:37:24.968Z,5.20
2018-05-18T02:38:24.916Z,4.90
2018-05-18T02:39:24.877Z,5.00
2018-05-18T02:40:24.833Z,4.60
2018-05-18T02:41:24.787Z,5.20
2018-05-18T02:42:24.740Z,4.70
2018-05-18T02:43:24.698Z,4.90
2018-05-18T02:44:24.656Z,5.50
2018-05-18T02:45:24.621Z,5.50
2018-05-18T02:46:24.571Z,4.60
2018-05-18T02:47:24.530Z,5.00
2018-05-18T02:48:24.482Z,5.00
2018-05-18T02:49:24.443Z,4.90
2018-05-18T02:50:24.395Z,5.00
2018-05-18T02:51:24.355Z,4.90
2018-05-18T02:52:24.363Z,4.70
2018-05-18T02:53:24.266Z,4.80
2018-05-18T02:54:24.221Z,4.80
2018-05-18T02:55:24.182Z,4.40
2018-05-18T02:56:24.135Z,4.80
2018-05-18T02:57:24.093Z,4.50
2018-05-18T02:58:24.051Z,5.20
2018-05-18T02:59:24.015Z,5.00
2018-05-18T03:00:23.970Z,4.90
2018-05-18T03:01:23.926Z,5.10
2018-05-18T03:02:23.876Z,5.00
2018-05-18T03:03:23.832Z,4.90
2018-05-18T03:04:23.793Z,5.20
2018-05-18T03:05:23.744Z,4.30
2018-05-18T03:06:23.703Z,4.80
2018-05-18T03:07:23.658Z,4.60
2018-05-18T03:08:23.619Z,4.60
2018-05-18T03:09:23.573Z,5.20
2018-05-18T03:10:23.529Z,5.10
2018-05-18T03:11:23.483Z,4.70
2018-05-18T03:12:23.449Z,4.60
2018-05-18T03:13:23.396Z,4.60
2018-05-18T03:14:23.352Z,4.40
2018-05-18T03:15:23.310Z,5.10
2018-05-18T03:16:23.270Z,4.00
2018-05-18T03:17:23.222Z,4.80
2018-05-18T03:18:23.179Z,4.60
2018-05-18T03:19:23.139Z,4.80
2018-05-18T03:20:23.096Z,5.30
2018-05-18T03:21:23.050Z,4.70
2018-05-18T03:22:23.005Z,5.30
2018-05-18T03:23:22.965Z,4.30
2018-05-18T03:24:22.924Z,4.70
2018-05-18T03:25:22.876Z,4.60
2018-05-18T03:26:22.832Z,4.50
2018-05-18T03:27:22.788Z,4.90
2018-05-18T03:28:22.742Z,4.10
2018-05-18T03:29:22.700Z,4.40
2018-05-18T03:30:22.708Z,4.30
2018-05-18T03:31:22.617Z,5.50
2018-05-18T03:32:22.573Z,4.80
2018-05-18T03:33:22.527Z,4.20
2018-05-18T03:34:22.481Z,5.00
2018-05-18T03:35:22.441Z,4.80
2018-05-18T03:36:22.396Z,4.70
2018-05-18T03:37:22.354Z,4.30
2018-05-18T03:38:22.311Z,4.80
2018-05-18T03:39:22.265Z,4.50
2018-05-18T03:40:22.222Z,4.30
2018-05-18T03:41:22.178Z,4.40
2018-05-18T03:42:22.137Z,4.70
2018-05-18T03:43:22.089Z,4.50
2018-05-18T03:44:22.051Z,5.20
2018-05-18T03:45:22.006Z,4.50
2018-05-18T03:46:21.963Z,4.60
2018-05-18T03:47:21.918Z,4.40
2018-05-18T03:48:21.874Z,4.50
2018-05-18T03:49:21.857Z,4.40
2018-05-18T03:50:21.790Z,5.00
2018-05-18T03:51:21.756Z,4.20
2018-05-18T03:52:21.702Z,4.30
2018-05-18T03:53:21.658Z,4.50
2018-05-18T03:54:21.614Z,4.10
2018-05-18T03:55:21.572Z,4.30
2018-05-18T03:56:21.531Z,5.20
2018-05-18T03:57:21.488Z,4.60
2018-05-18T03:58:21.445Z,4.70
2018-05-18T03:59:21.398Z,4.40
2018-05-18T04:00:21.354Z,5.10
2018-05-18T04:01:21.338Z,5.00
2018-05-18T04:02:21.271Z,4.30
2018-05-18T04:03:21.222Z,4.80
2018-05-18T04:04:21.177Z,4.60
2018-05-18T04:05:21.135Z,4.50
2018-05-18T04:06:21.096Z,4.80
2018-05-18T04:07:21.047Z,4.30
2018-05-18T04:08:21.001Z,4.30
2018-05-18T04:09:20.960Z,5.30
2018-05-18T04:10:20.938Z,4.40
2018-05-18T04:11:20.874Z,4.50
2018-05-18T04:12:20.829Z,4.30
2018-05-18T04:13:20.787Z,4.50
2018-05-18T04:14:20.741Z,4.50
2018-05-18T04:15:20.697Z,5.00
2018-05-18T04:16:20.655Z,4.40
2018-05-18T04:17:20.611Z,4.80
2018-05-18T04:18:20.567Z,4.20
2018-05-18T04:19:20.524Z,4.90
2018-05-18T04:20:20.480Z,4.10
2018-05-18T04:21:20.438Z,4.50
2018-05-18T04:22:20.391Z,4.60
2018-05-18T04:23:20.351Z,4.80
2018-05-18T04:24:20.309Z,4.50
2018-05-18T04:25:20.267Z,4.50
2018-05-18T04:26:20.216Z,4.60
2018-05-18T04:27:20.173Z,5.30
2018-05-18T04:28:20.131Z,4.90
2018-05-18T04:29:20.090Z,4.40
2018-05-18T04:30:20.083Z,4.60
2018-05-18T04:31:20.000Z,4.80
2018-05-18T04:32:19.956Z,4.80
2018-05-18T04:33:19.912Z,4.20
2018-05-18T04:34:19.867Z,4.60
2018-05-18T04:35:19.828Z,4.50
2018-05-18T04:36:19.786Z,4.90
2018-05-18T04:37:19.744Z,4.40
2018-05-18T04:38:19.695Z,4.40
2018-05-18T04:39:19.653Z,4.70
2018-05-18T04:40:19.609Z,4.80
2018-05-18T04:41:19.562Z,4.70
2018-05-18T04:42:19.517Z,4.70
2018-05-18T04:43:19.549Z,4.10
2018-05-18T04:44:19.432Z,4.60
2018-05-18T04:45:19.389Z,4.70
2018-05-18T04:46:19.343Z,4.50
2018-05-18T04:47:19.300Z,5.40
2018-05-18T04:48:19.257Z,4.70
2018-05-18T04:49:19.211Z,5.20
2018-05-18T04:50:19.172Z,4.60
2018-05-18T04:51:19.130Z,4.80
2018-05-18T04:52:19.080Z,5.20
2018-05-18T04:53:19.040Z,4.80
2018-05-18T04:54:18.995Z,4.60
2018-05-18T04:55:18.954Z,4.20
2018-05-18T04:56:18.905Z,4.70
2018-05-18T04:57:18.863Z,4.80
2018-05-18T04:58:18.822Z,4.50
2018-05-18T04:59:18.784Z,4.90
2018-05-18T05:00:18.734Z,5.10
2018-05-18T05:01:18.687Z,5.20
2018-05-18T05:02:18.645Z,4.90
2018-05-18T05:03:18.607Z,4.70
2018-05-18T05:04:18.559Z,5.20
2018-05-18T05:05:18.523Z,4.40
2018-05-18T05:06:18.474Z,4.90
2018-05-18T05:07:18.428Z,4.80
2018-05-18T05:08:18.397Z,5.20
2018-05-18T05:09:18.338Z,4.70
2018-05-18T05:10:18.294Z,4.60
2018-05-18T05:11:18.251Z,4.90
2018-05-18T05:12:18.211Z,4.80
2018-05-18T05:13:18.172Z,5.00
2018-05-18T05:14:18.131Z,5.60
2018-05-18T05:15:18.077Z,4.20
2018-05-18T05:16:18.037Z,4.50
2018-05-18T05:17:17.996Z,5.30
2018-05-18T05:18:17.947Z,4.50
2018-05-18T05:19:17.903Z,5.80
2018-05-18T05:20:17.861Z,5.70
2018-05-18T05:21:17.817Z,6.30
2018-05-18T05:22:17.781Z,6.30
2018-05-18T05:23:17.727Z,6.00
2018-05-18T05:24:17.686Z,5.80
2018-05-18T05:25:17.643Z,6.90
2018-05-18T05:26:17.598Z,7.10
2018-05-18T05:27:17.552Z,4.90
2018-05-18T05:28:17.509Z,5.30
2018-05-18T05:29:17.467Z,4.40
2018-05-18T05:30:17.432Z,4.00
2018-05-18T05:31:17.387Z,4.70
2018-05-18T05:32:17.345Z,4.80
2018-05-18T05:33:17.298Z,4.90
2018-05-18T05:34:17.252Z,5.10
2018-05-18T05:35:17.208Z,4.30
2018-05-18T05:36:17.169Z,4.50
2018-05-18T05:37:17.117Z,4.40
2018-05-18T05:38:17.076Z,4.40
2018-05-18T05:39:17.035Z,4.70
2018-05-18T05:40:17.066Z,4.40
2018-05-18T05:41:16.943Z,4.50
2018-05-18T05:42:16.899Z,4.30
2018-05-18T05:43:16.858Z,4.60
2018-05-18T05:44:16.812Z,4.30
2018-05-18T05:45:16.774Z,4.90
2018-05-18T05:46:16.725Z,3.90
2018-05-18T05:47:16.684Z,4.90
2018-05-18T05:48:16.641Z,13.90
2018-05-18T05:49:16.607Z,6.60
2018-05-18T05:50:16.554Z,5.30
2018-05-18T05:51:16.507Z,4.90
2018-05-18T05:52:16.469Z,4.30
2018-05-18T05:53:16.425Z,4.40
2018-05-18T05:54:16.389Z,4.40
2018-05-18T05:55:16.336Z,4.70
2018-05-18T05:56:16.290Z,4.30
2018-05-18T05:57:16.249Z,4.70
2018-05-18T05:58:16.207Z,4.10
2018-05-18T05:59:16.161Z,4.20
2018-05-18T06:00:16.119Z,4.90
2018-05-18T06:01:16.075Z,7.70
2018-05-18T06:02:16.031Z,4.70
2018-05-18T06:03:15.992Z,4.00
2018-05-18T06:04:15.948Z,4.90
2018-05-18T06:05:15.978Z,4.10
2018-05-18T06:06:15.860Z,4.40
2018-05-18T06:07:15.818Z,7.60
2018-05-18T06:08:15.775Z,6.50
2018-05-18T06:09:15.750Z,5.50
2018-05-18T06:10:15.690Z,4.80
2018-05-18T06:11:15.645Z,4.60
2018-05-18T06:12:15.694Z,4.50
2018-05-18T06:13:15.560Z,5.10
2018-05-18T06:14:15.513Z,4.60
2018-05-18T06:15:15.471Z,4.70
2018-05-18T06:16:15.424Z,4.10
2018-05-18T06:17:15.393Z,4.50
2018-05-18T06:18:15.340Z,4.30
2018-05-18T06:19:15.295Z,4.70
2018-05-18T06:20:15.255Z,4.50
2018-05-18T06:21:15.211Z,4.50
2018-05-18T06:22:15.165Z,4.20
2018-05-18T06:23:15.122Z,4.50
2018-05-18T06:24:15.080Z,4.10
2018-05-18T06:25:15.042Z,4.40
2018-05-18T06:26:14.993Z,4.20
2018-05-18T06:27:14.951Z,4.80
2018-05-18T06:28:14.907Z,4.70
2018-05-18T06:29:14.865Z,4.00
2018-05-18T06:30:14.820Z,4.30
2018-05-18T06:31:14.786Z,4.50
2018-05-18T06:32:14.737Z,4.90
2018-05-18T06:33:14.695Z,4.60
2018-05-18T06:34:14.652Z,4.40
2018-05-18T06:35:14.637Z,4.60
2018-05-18T06:36:14.564Z,4.80
2018-05-18T06:37:14.525Z,4.70
2018-05-18T06:38:14.482Z,4.50
2018-05-18T06:39:14.471Z,4.80
2018-05-18T06:40:14.396Z,3.80
2018-05-18T06:41:14.439Z,4.60
2018-05-18T06:42:14.309Z,4.30
2018-05-18T06:43:14.268Z,4.50
2018-05-18T06:44:14.222Z,5.00
2018-05-18T06:45:14.179Z,5.00
2018-05-18T06:46:14.133Z,4.70
2018-05-18T06:47:14.091Z,5.00
2018-05-18T06:48:14.049Z,4.70
2018-05-18T06:49:14.009Z,5.10
2018-05-18T06:50:13.964Z,5.80
2018-05-18T06:51:13.925Z,5.00
2018-05-18T06:52:13.880Z,4.70
2018-05-18T06:53:13.834Z,5.00
2018-05-18T06:54:13.793Z,4.90
2018-05-18T06:55:13.746Z,5.10
2018-05-18T06:56:13.703Z,5.10
2018-05-18T06:57:13.660Z,6.00
2018-05-18T06:58:13.617Z,4.60
2018-05-18T06:59:13.574Z,4.90
2018-05-18T07:00:13.532Z,4.50
2018-05-18T07:01:13.491Z,4.60
2018-05-18T07:02:13.444Z,5.10
2018-05-18T07:03:13.403Z,5.00
2018-05-18T07:04:13.360Z,5.00
2018-05-18T07:05:13.321Z,4.70
2018-05-18T07:06:13.290Z,5.20
2018-05-18T07:07:13.235Z,4.80
2018-05-18T07:08:13.194Z,4.80
2018-05-18T07:10:13.110Z,4.90
2018-05-18T07:11:13.067Z,4.70
2018-05-18T07:12:13.021Z,5.40
2018-05-18T07:13:12.978Z,4.60
2018-05-18T07:14:12.931Z,5.70
2018-05-18T07:15:12.889Z,4.90
2018-05-18T07:16:12.859Z,4.30
2018-05-18T07:17:12.805Z,5.00
2018-05-18T07:18:12.764Z,4.90
2018-05-18T07:19:12.721Z,5.00
2018-05-18T07:20:12.677Z,4.60
2018-05-18T07:21:12.635Z,5.30
2018-05-18T07:22:12.591Z,5.10
2018-05-18T07:23:12.550Z,5.10
2018-05-18T07:24:12.505Z,5.30
2018-05-18T07:25:12.462Z,5.10
2018-05-18T07:26:12.417Z,5.40
2018-05-18T07:27:12.386Z,4.70
2018-05-18T07:28:12.332Z,5.60
2018-05-18T07:29:12.292Z,5.10
2018-05-18T07:30:12.250Z,5.20
2018-05-18T07:31:12.205Z,5.10
2018-05-18T07:32:12.165Z,5.30
2018-05-18T07:33:12.121Z,5.20
2018-05-18T07:34:12.081Z,5.40
2018-05-18T07:35:12.036Z,5.20
2018-05-18T07:36:12.003Z,5.30
2018-05-18T07:37:11.955Z,5.00
2018-05-18T07:38:11.912Z,5.30
2018-05-18T07:39:11.864Z,5.40
2018-05-18T07:40:11.820Z,5.20
2018-05-18T07:41:11.780Z,5.80
2018-05-18T07:42:11.736Z,5.50
2018-05-18T07:43:11.697Z,5.00
2018-05-18T07:44:11.651Z,5.10
2018-05-18T07:45:11.610Z,5.10
2018-05-18T07:46:11.565Z,5.20
2018-05-18T07:47:11.527Z,5.40
2018-05-18T07:48:11.481Z,5.80
2018-05-18T07:49:11.438Z,5.70
2018-05-18T07:50:11.410Z,5.50
2018-05-18T07:51:11.353Z,5.40
2018-05-18T07:52:11.315Z,5.00
2018-05-18T07:53:11.269Z,5.30
2018-05-18T07:54:11.228Z,5.20
2018-05-18T07:55:11.184Z,5.90
2018-05-18T07:56:11.141Z,5.40
2018-05-18T07:57:11.100Z,5.50
2018-05-18T07:58:11.055Z,5.00
2018-05-18T07:59:11.017Z,5.10
2018-05-18T08:00:10.972Z,5.30
2018-05-18T08:01:10.935Z,5.20
2018-05-18T08:02:10.888Z,5.20
2018-05-18T08:03:10.847Z,5.40
2018-05-18T08:04:10.809Z,5.80
2018-05-18T08:05:10.762Z,5.00
2018-05-18T08:06:10.717Z,5.80
2018-05-18T08:07:10.676Z,5.20
2018-05-18T08:08:12.185Z,5.80
2018-05-18T08:09:10.594Z,5.20
2018-05-18T08:10:10.551Z,5.00
2018-05-18T08:11:10.508Z,5.10
2018-05-18T08:12:10.468Z,5.40
2018-05-18T08:13:10.426Z,5.20
2018-05-18T08:14:10.383Z,6.10
2018-05-18T08:15:10.440Z,5.30
2018-05-18T08:16:10.302Z,5.40
2018-05-18T08:17:10.266Z,5.50
2018-05-18T08:18:10.215Z,5.50
2018-05-18T08:19:10.180Z,5.60
2018-05-18T08:20:10.133Z,5.20
2018-05-18T08:21:10.096Z,5.50
2018-05-18T08:22:10.049Z,5.10
2018-05-18T08:23:10.009Z,4.90
2018-05-18T08:24:09.968Z,5.70
2018-05-18T08:25:09.927Z,4.90
2018-05-18T08:26:09.885Z,5.30
2018-05-18T08:27:09.916Z,5.10
2018-05-18T08:28:09.809Z,5.10
2018-05-18T08:29:09.765Z,5.10
2018-05-18T08:30:09.725Z,6.20
2018-05-18T08:31:09.685Z,5.40
2018-05-18T08:32:09.640Z,5.70
2018-05-18T08:33:09.599Z,5.30
2018-05-18T08:34:09.561Z,5.80
2018-05-18T08:35:09.526Z,5.90
2018-05-18T08:36:09.482Z,5.40
2018-05-18T08:37:09.438Z,5.70
2018-05-18T08:38:09.396Z,5.80
2018-05-18T08:39:09.414Z,5.60
2018-05-18T08:40:09.317Z,5.50
2018-05-18T08:41:09.282Z,5.70
2018-05-18T08:42:09.231Z,6.00
2018-05-18T08:43:09.194Z,5.80
2018-05-18T08:44:09.154Z,5.80
2018-05-18T08:45:09.119Z,5.90
2018-05-18T08:46:09.101Z,5.30
2018-05-18T08:47:09.035Z,5.80
2018-05-18T08:48:08.991Z,5.30
2018-05-18T08:49:08.955Z,5.60
2018-05-18T08:50:08.910Z,6.10
2018-05-18T08:51:08.872Z,5.40
2018-05-18T08:52:08.834Z,5.50
2018-05-18T08:53:08.789Z,5.40
2018-05-18T08:54:08.750Z,5.80
2018-05-18T08:55:08.712Z,5.30
2018-05-18T08:56:08.671Z,5.50
2018-05-18T08:57:08.630Z,5.90
2018-05-18T08:58:08.590Z,5.50
2018-05-18T08:59:08.551Z,5.50
2018-05-18T09:00:08.510Z,5.90
2018-05-18T09:01:08.476Z,5.30
2018-05-18T09:02:08.429Z,5.60
2018-05-18T09:03:08.389Z,4.90
2018-05-18T09:04:08.352Z,5.70
2018-05-18T09:05:08.318Z,5.60
2018-05-18T09:06:08.287Z,6.50
2018-05-18T09:07:08.236Z,5.00
2018-05-18T09:08:08.197Z,5.20
2018-05-18T09:09:12.660Z,5.20
2018-05-18T09:10:08.115Z,5.30
2018-05-18T09:11:08.082Z,5.60
2018-05-18T09:12:08.036Z,5.60
2018-05-18T09:13:08.027Z,5.40
2018-05-18T09:14:07.968Z,5.40
2018-05-18T09:15:07.918Z,5.20
2018-05-18T09:16:07.886Z,5.60
2018-05-18T09:17:07.847Z,5.50
2018-05-18T09:18:07.802Z,5.40
2018-05-18T09:19:07.762Z,5.60
2018-05-18T09:20:07.723Z,5.10
2018-05-18T09:21:07.694Z,7.10
2018-05-18T09:22:07.658Z,6.00
2018-05-18T09:23:07.615Z,5.90
2018-05-18T09:24:07.592Z,6.10
2018-05-18T09:25:07.532Z,6.00
2018-05-18T09:26:07.492Z,6.30
2018-05-18T09:27:07.460Z,6.10
2018-05-18T09:28:07.421Z,5.80
2018-05-18T09:29:07.379Z,6.00
2018-05-18T09:30:07.337Z,7.40
2018-05-18T09:31:07.299Z,7.80
2018-05-18T09:32:07.261Z,6.80
2018-05-18T09:33:07.221Z,7.10
2018-05-18T09:34:07.233Z,6.30
2018-05-18T09:35:07.141Z,6.30
2018-05-18T09:36:07.104Z,5.90
2018-05-18T09:37:07.064Z,6.40
2018-05-18T09:38:07.039Z,6.70
2018-05-18T09:39:06.987Z,6.70
2018-05-18T09:40:06.953Z,6.80
2018-05-18T09:41:06.911Z,6.70
2018-05-18T09:42:06.870Z,6.70
2018-05-18T09:43:06.832Z,6.90
2018-05-18T09:44:06.794Z,6.20
2018-05-18T09:45:06.789Z,6.80
2018-05-18T09:46:06.716Z,6.40
2018-05-18T09:47:06.682Z,6.70
2018-05-18T09:48:06.640Z,6.70
2018-05-18T09:49:06.600Z,7.20
2018-05-18T09:50:06.562Z,7.50
2018-05-18T09:51:06.524Z,7.70
2018-05-18T09:52:06.489Z,7.70
2018-05-18T09:53:06.470Z,8.40
2018-05-18T09:54:06.414Z,7.90
2018-05-18T09:55:06.636Z,8.20
2018-05-18T09:56:06.330Z,8.30
2018-05-18T09:57:06.292Z,8.20
2018-05-18T09:58:06.253Z,7.60
2018-05-18T09:59:06.215Z,7.70
2018-05-18T10:00:06.177Z,7.60
2018-05-18T10:01:06.138Z,7.40
2018-05-18T10:02:06.099Z,7.00
2018-05-18T10:03:06.064Z,7.90
2018-05-18T10:04:06.021Z,6.70
2018-05-18T10:05:05.983Z,6.40
2018-05-18T10:06:05.943Z,6.30
2018-05-18T10:07:05.907Z,5.80
2018-05-18T10:08:05.878Z,6.60
2018-05-18T10:09:05.837Z,5.60
2018-05-18T10:10:05.793Z,5.70
2018-05-18T10:11:05.755Z,5.40
2018-05-18T10:12:05.717Z,5.70
2018-05-18T10:13:05.675Z,5.90
2018-05-18T10:14:05.635Z,5.20
2018-05-18T10:15:05.598Z,5.60
2018-05-18T10:16:05.558Z,5.00
2018-05-18T10:17:05.523Z,5.60
2018-05-18T10:18:05.521Z,6.00
2018-05-18T10:19:05.441Z,5.20
2018-05-18T10:20:05.408Z,5.60
2018-05-18T10:21:05.367Z,4.80
2018-05-18T10:22:05.333Z,5.60
2018-05-18T10:23:05.293Z,5.50
2018-05-18T10:24:05.250Z,5.90
2018-05-18T10:25:05.212Z,5.70
2018-05-18T10:26:05.176Z,5.50
2018-05-18T10:27:05.148Z,5.50
2018-05-18T10:28:05.095Z,5.10
2018-05-18T10:29:05.058Z,5.50
2018-05-18T10:30:05.018Z,5.40
2018-05-18T10:31:04.979Z,5.50
2018-05-18T10:32:04.947Z,5.80
2018-05-18T10:33:04.904Z,5.00
2018-05-18T10:34:04.863Z,5.20
2018-05-18T10:35:04.826Z,5.10
2018-05-18T10:36:04.795Z,5.40
2018-05-18T10:37:04.755Z,5.20
2018-05-18T10:38:04.709Z,5.40
2018-05-18T10:39:04.673Z,5.70
2018-05-18T10:40:04.631Z,5.20
2018-05-18T10:41:04.594Z,5.50
2018-05-18T10:42:04.556Z,5.10
2018-05-18T10:43:04.516Z,5.30
2018-05-18T10:44:04.478Z,5.10
2018-05-18T10:45:04.440Z,4.70
2018-05-18T10:46:04.401Z,5.30
2018-05-18T10:47:04.362Z,5.50
2018-05-18T10:48:04.327Z,5.50
2018-05-18T10:49:04.286Z,5.50
2018-05-18T10:50:04.251Z,4.80
2018-05-18T10:51:04.212Z,4.90
2018-05-18T10:52:04.170Z,5.30
2018-05-18T10:53:04.155Z,5.10
2018-05-18T10:54:04.099Z,5.00
2018-05-18T10:55:04.066Z,4.70
2018-05-18T10:56:04.028Z,5.00
2018-05-18T10:57:03.981Z,5.10
2018-05-18T10:58:03.942Z,5.10
2018-05-18T10:59:03.906Z,5.30
2018-05-18T11:00:03.865Z,5.30
2018-05-18T11:01:03.827Z,5.50
2018-05-18T11:02:03.788Z,5.20
2018-05-18T11:03:03.750Z,5.80
2018-05-18T11:04:03.713Z,6.00
2018-05-18T11:05:03.677Z,5.30
2018-05-18T11:06:03.638Z,5.20
2018-05-18T11:07:03.704Z,5.50
2018-05-18T11:08:03.565Z,5.80
2018-05-18T11:09:03.524Z,5.10
2018-05-18T11:10:03.485Z,5.30
2018-05-18T11:11:03.449Z,5.50
2018-05-18T11:12:03.411Z,4.80
2018-05-18T11:13:03.377Z,5.00
2018-05-18T11:14:03.362Z,5.40
2018-05-18T11:15:03.297Z,5.00
2018-05-18T11:16:03.266Z,5.30
2018-05-18T11:17:03.224Z,5.80
2018-05-18T11:18:03.185Z,5.70
2018-05-18T11:19:03.148Z,5.80
2018-05-18T11:20:03.205Z,5.30
2018-05-18T11:21:03.077Z,5.80
2018-05-18T11:22:03.036Z,6.20
2018-05-18T11:23:03.002Z,5.80
2018-05-18T11:24:02.962Z,5.80
2018-05-18T11:25:02.930Z,5.60
2018-05-18T11:26:02.889Z,6.20
2018-05-18T11:27:02.851Z,6.00
2018-05-18T11:28:02.825Z,6.20
2018-05-18T11:29:02.777Z,6.10
2018-05-18T11:30:02.738Z,5.70
2018-05-18T11:31:02.703Z,6.00
2018-05-18T11:32:02.685Z,6.00
2018-05-18T11:33:02.727Z,6.00
2018-05-18T11:34:02.591Z,6.20
2018-05-18T11:35:02.552Z,6.10
2018-05-18T11:36:02.518Z,6.40
2018-05-18T11:37:02.479Z,5.90
2018-05-18T11:38:02.441Z,5.30
2018-05-18T11:39:02.423Z,5.40
2018-05-18T11:40:02.392Z,5.40
2018-05-18T11:41:02.340Z,5.70
2018-05-18T11:42:02.294Z,5.80
2018-05-18T11:43:02.257Z,5.50
2018-05-18T11:44:02.221Z,5.80
2018-05-18T11:45:02.188Z,5.50
2018-05-18T11:46:02.161Z,5.60
2018-05-18T11:47:02.137Z,5.60
2018-05-18T11:48:02.139Z,5.40
2018-05-18T11:49:02.040Z,5.90
2018-05-18T11:50:02.054Z,5.60
2018-05-18T11:51:01.966Z,5.50
2018-05-18T11:52:01.937Z,4.90
2018-05-18T11:53:01.894Z,5.80
2018-05-18T11:54:01.857Z,5.40
2018-05-18T11:55:01.821Z,5.00
2018-05-18T11:56:01.783Z,5.40
2018-05-18T11:57:01.750Z,6.00
2018-05-18T11:58:01.719Z,5.50
2018-05-18T11:59:01.684Z,5.50
2018-05-18T12:00:01.646Z,5.60
2018-05-18T12:01:01.608Z,6.20
2018-05-18T12:03:01.549Z,5.20
2018-05-18T12:04:01.527Z,5.60
2018-05-18T12:05:01.458Z,5.60
2018-05-18T12:06:01.421Z,5.60
2018-05-18T12:07:01.382Z,5.50
2018-05-18T12:08:01.346Z,5.90
2018-05-18T12:09:01.310Z,6.90
2018-05-18T12:10:01.276Z,6.70
2018-05-18T12:11:01.240Z,5.90
2018-05-18T12:12:01.203Z,6.20
2018-05-18T12:13:01.165Z,6.40
2018-05-18T12:14:01.143Z,6.70
2018-05-18T12:15:01.093Z,6.10
2018-05-18T12:16:01.056Z,6.40
2018-05-18T12:17:01.020Z,6.80
2018-05-18T12:18:00.984Z,6.20
2018-05-18T12:19:00.948Z,6.10
2018-05-18T12:20:00.918Z,6.10
2018-05-18T12:21:01.267Z,6.00
2018-05-18T12:22:00.958Z,5.90
2018-05-18T12:23:00.997Z,6.40
2018-05-18T12:24:00.972Z,5.90
2018-05-18T12:25:00.735Z,5.60
2018-05-18T12:26:00.704Z,5.60
2018-05-18T12:27:00.659Z,5.70
2018-05-18T12:28:00.622Z,5.60
2018-05-18T12:29:00.588Z,5.60
2018-05-18T12:30:00.552Z,5.40
2018-05-18T12:31:00.515Z,6.00
2018-05-18T12:32:00.483Z,5.60
2018-05-18T12:33:00.446Z,5.90
2018-05-18T12:34:00.409Z,5.50
2018-05-18T12:35:00.374Z,5.80
2018-05-18T12:36:00.337Z,6.00
2018-05-18T12:37:00.299Z,5.70
2018-05-18T12:38:00.271Z,5.70
2018-05-18T12:39:00.255Z,5.80
2018-05-18T12:40:00.216Z,6.30
2018-05-18T12:41:00.158Z,5.30
2018-05-18T12:42:00.144Z,5.80
2018-05-18T12:43:00.087Z,6.30
2018-05-18T12:44:00.050Z,5.90
2018-05-18T12:45:00.039Z,5.60
2018-05-18T12:45:59.979Z,5.80
2018-05-18T12:46:59.946Z,6.60
2018-05-18T12:47:59.910Z,6.00
2018-05-18T12:48:59.873Z,5.90
2018-05-18T12:49:59.833Z,5.40
2018-05-18T12:50:59.797Z,5.30
2018-05-18T12:51:59.761Z,6.20
2018-05-18T12:52:59.727Z,5.30
2018-05-18T12:53:59.699Z,5.20
2018-05-18T12:54:59.656Z,5.90
2018-05-18T12:55:59.618Z,5.70
2018-05-18T12:56:59.595Z,5.90
2018-05-18T12:57:59.562Z,5.60
2018-05-18T12:58:59.522Z,6.50
2018-05-18T12:59:59.475Z,5.30
2018-05-18T13:00:59.441Z,6.10
2018-05-18T13:01:59.405Z,5.60
2018-05-18T13:02:59.369Z,6.00
2018-05-18T13:03:59.332Z,5.80
2018-05-18T13:04:59.298Z,5.90
2018-05-18T13:05:59.260Z,6.50
2018-05-18T13:06:59.227Z,5.90
2018-05-18T13:07:59.189Z,6.50
2018-05-18T13:08:59.156Z,5.40
2018-05-18T13:09:59.117Z,6.40
2018-05-18T13:10:59.089Z,6.00
2018-05-18T13:11:59.046Z,5.80
2018-05-18T13:12:59.014Z,6.00
2018-05-18T13:13:58.977Z,5.50
2018-05-18T13:14:58.982Z,5.70
2018-05-18T13:15:59.070Z,5.80
2018-05-18T13:16:58.872Z,5.60
2018-05-18T13:17:58.841Z,5.60
2018-05-18T13:18:58.801Z,5.70
2018-05-18T13:19:58.762Z,5.60